sensor_id;sensor_type;location;lat;lon;timestamp;P1;durP1;ratioP1;P2;durP2;ratioP2
10056;SDS011;5068;51.286;7.518;2022-08-03T00:01:23;3.63;;;1.80;;
10056;SDS011;5068;51.286;7.518;2022-08-03T00:02:58;3.53;;;1.35;;
10056;SDS011;5068;51.286;7.518;2022-08-03T00:04:31;2.13;;;1.92;;
10056;SDS011;5068;51.286;7.518;2022-08-03T00:06:05;3.78;;;1.85;;
10056;SDS011;5068;51.286;7.518;2022-08-03T00:07:41;2.30;;;1.60;;
10056;SDS011;5068;51.286;7.518;2022-08-03T00:09:16;2.53;;;1.90;;
10056;SDS011;5068;51.286;7.518;2022-08-03T00:10:49;2.53;;;1.77;;
10056;SDS011;5068;51.286;7.518;2022-08-03T00:12:23;1.88;;;1.73;;
10056;SDS011;5068;51.286;7.518;2022-08-03T00:13:56;1.70;;;1.60;;
10056;SDS011;5068;51.286;7.518;2022-08-03T00:15:29;2.47;;;1.67;;
10056;SDS011;5068;51.286;7.518;2022-08-03T00:17:03;1.83;;;1.70;;
10056;SDS011;5068;51.286;7.518;2022-08-03T00:18:38;2.67;;;1.85;;
10056;SDS011;5068;51.286;7.518;2022-08-03T00:20:11;1.80;;;1.70;;
10056;SDS011;5068;51.286;7.518;2022-08-03T00:21:44;1.98;;;1.83;;
10056;SDS011;5068;51.286;7.518;2022-08-03T00:23:18;2.00;;;1.80;;
10056;SDS011;5068;51.286;7.518;2022-08-03T00:24:52;2.65;;;1.92;;
10056;SDS011;5068;51.286;7.518;2022-08-03T00:26:25;2.42;;;1.83;;
10056;SDS011;5068;51.286;7.518;2022-08-03T00:27:59;2.30;;;2.05;;
10056;SDS011;5068;51.286;7.518;2022-08-03T00:29:32;2.50;;;1.90;;
10056;SDS011;5068;51.286;7.518;2022-08-03T00:31:25;2.80;;;2.00;;
10056;SDS011;5068;51.286;7.518;2022-08-03T00:33:19;2.90;;;1.92;;
10056;SDS011;5068;51.286;7.518;2022-08-03T00:34:59;3.22;;;1.60;;
10056;SDS011;5068;51.286;7.518;2022-08-03T00:36:38;2.38;;;1.90;;
10056;SDS011;5068;51.286;7.518;2022-08-03T00:38:13;3.33;;;1.45;;
10056;SDS011;5068;51.286;7.518;2022-08-03T00:39:46;2.75;;;1.90;;
10056;SDS011;5068;51.286;7.518;2022-08-03T00:41:20;2.20;;;1.60;;
10056;SDS011;5068;51.286;7.518;2022-08-03T00:42:55;1.70;;;1.60;;
10056;SDS011;5068;51.286;7.518;2022-08-03T00:44:30;2.10;;;1.90;;
10056;SDS011;5068;51.286;7.518;2022-08-03T00:46:03;1.95;;;1.75;;
10056;SDS011;5068;51.286;7.518;2022-08-03T00:47:37;3.17;;;2.10;;
10056;SDS011;5068;51.286;7.518;2022-08-03T00:49:09;6.60;;;1.80;;
10056;SDS011;5068;51.286;7.518;2022-08-03T00:50:44;2.30;;;1.70;;
10056;SDS011;5068;51.286;7.518;2022-08-03T00:52:22;3.72;;;1.80;;
10056;SDS011;5068;51.286;7.518;2022-08-03T00:53:55;3.30;;;1.83;;
10056;SDS011;5068;51.286;7.518;2022-08-03T00:55:29;2.30;;;1.60;;
10056;SDS011;5068;51.286;7.518;2022-08-03T00:57:03;1.67;;;1.58;;
10056;SDS011;5068;51.286;7.518;2022-08-03T00:58:37;2.10;;;1.90;;
10056;SDS011;5068;51.286;7.518;2022-08-03T01:00:12;1.90;;;1.80;;
10056;SDS011;5068;51.286;7.518;2022-08-03T01:01:54;2.03;;;1.90;;
10056;SDS011;5068;51.286;7.518;2022-08-03T01:03:29;3.72;;;2.13;;
10056;SDS011;5068;51.286;7.518;2022-08-03T01:05:03;1.95;;;1.45;;
10056;SDS011;5068;51.286;7.518;2022-08-03T01:06:40;2.22;;;1.70;;
10056;SDS011;5068;51.286;7.518;2022-08-03T01:08:27;2.45;;;1.80;;
10056;SDS011;5068;51.286;7.518;2022-08-03T01:10:15;3.53;;;2.08;;
10056;SDS011;5068;51.286;7.518;2022-08-03T01:12:07;2.22;;;2.13;;
10056;SDS011;5068;51.286;7.518;2022-08-03T01:13:51;5.25;;;1.95;;
10056;SDS011;5068;51.286;7.518;2022-08-03T01:15:53;2.97;;;1.75;;
10056;SDS011;5068;51.286;7.518;2022-08-03T01:17:35;1.70;;;1.60;;
10056;SDS011;5068;51.286;7.518;2022-08-03T01:19:26;3.78;;;1.75;;
10056;SDS011;5068;51.286;7.518;2022-08-03T01:21:19;4.18;;;1.80;;
10056;SDS011;5068;51.286;7.518;2022-08-03T01:25:39;3.50;;;1.55;;
10056;SDS011;5068;51.286;7.518;2022-08-03T01:27:38;3.45;;;1.80;;
10056;SDS011;5068;51.286;7.518;2022-08-03T01:31:31;1.95;;;1.77;;
10056;SDS011;5068;51.286;7.518;2022-08-03T01:33:35;2.50;;;1.70;;
10056;SDS011;5068;51.286;7.518;2022-08-03T01:35:15;2.22;;;2.03;;
10056;SDS011;5068;51.286;7.518;2022-08-03T01:36:57;2.33;;;1.50;;
10056;SDS011;5068;51.286;7.518;2022-08-03T01:38:37;2.50;;;1.90;;
10056;SDS011;5068;51.286;7.518;2022-08-03T01:40:18;3.20;;;1.80;;
10056;SDS011;5068;51.286;7.518;2022-08-03T01:41:56;2.08;;;1.80;;
10056;SDS011;5068;51.286;7.518;2022-08-03T01:43:36;4.70;;;1.98;;
10056;SDS011;5068;51.286;7.518;2022-08-03T01:45:35;2.33;;;1.73;;
10056;SDS011;5068;51.286;7.518;2022-08-03T01:47:11;2.85;;;1.80;;
10056;SDS011;5068;51.286;7.518;2022-08-03T01:48:46;1.80;;;1.70;;
10056;SDS011;5068;51.286;7.518;2022-08-03T01:50:22;1.60;;;1.50;;
10056;SDS011;5068;51.286;7.518;2022-08-03T01:52:01;2.05;;;1.77;;
10056;SDS011;5068;51.286;7.518;2022-08-03T01:53:42;1.77;;;1.67;;
10056;SDS011;5068;51.286;7.518;2022-08-03T01:55:18;1.83;;;1.70;;
10056;SDS011;5068;51.286;7.518;2022-08-03T01:56:55;2.10;;;1.90;;
10056;SDS011;5068;51.286;7.518;2022-08-03T01:58:30;1.80;;;1.70;;
10056;SDS011;5068;51.286;7.518;2022-08-03T02:00:08;3.15;;;2.13;;
10056;SDS011;5068;51.286;7.518;2022-08-03T02:01:51;2.33;;;1.85;;
10056;SDS011;5068;51.286;7.518;2022-08-03T02:03:48;2.83;;;1.77;;
10056;SDS011;5068;51.286;7.518;2022-08-03T02:05:32;2.95;;;2.00;;
10056;SDS011;5068;51.286;7.518;2022-08-03T02:07:08;3.38;;;2.00;;
10056;SDS011;5068;51.286;7.518;2022-08-03T02:08:43;2.15;;;1.85;;
10056;SDS011;5068;51.286;7.518;2022-08-03T02:10:20;2.45;;;1.75;;
10056;SDS011;5068;51.286;7.518;2022-08-03T02:12:07;1.98;;;1.70;;
10056;SDS011;5068;51.286;7.518;2022-08-03T02:13:46;4.22;;;1.90;;
10056;SDS011;5068;51.286;7.518;2022-08-03T02:15:23;2.33;;;2.05;;
10056;SDS011;5068;51.286;7.518;2022-08-03T02:16:59;2.05;;;1.95;;
10056;SDS011;5068;51.286;7.518;2022-08-03T02:18:33;3.15;;;2.13;;
10056;SDS011;5068;51.286;7.518;2022-08-03T02:20:10;5.32;;;2.13;;
10056;SDS011;5068;51.286;7.518;2022-08-03T02:21:48;2.63;;;1.83;;
10056;SDS011;5068;51.286;7.518;2022-08-03T02:23:32;2.55;;;2.03;;
10056;SDS011;5068;51.286;7.518;2022-08-03T02:25:06;2.22;;;1.70;;
10056;SDS011;5068;51.286;7.518;2022-08-03T02:26:41;2.75;;;1.70;;
10056;SDS011;5068;51.286;7.518;2022-08-03T02:28:16;2.15;;;1.63;;
10056;SDS011;5068;51.286;7.518;2022-08-03T02:29:55;2.10;;;1.90;;
10056;SDS011;5068;51.286;7.518;2022-08-03T02:31:36;2.22;;;1.92;;
10056;SDS011;5068;51.286;7.518;2022-08-03T02:33:17;4.00;;;2.03;;
10056;SDS011;5068;51.286;7.518;2022-08-03T02:34:58;2.40;;;1.85;;
10056;SDS011;5068;51.286;7.518;2022-08-03T02:36:36;2.10;;;1.70;;
10056;SDS011;5068;51.286;7.518;2022-08-03T02:38:12;3.78;;;1.85;;
10056;SDS011;5068;51.286;7.518;2022-08-03T02:39:50;2.08;;;1.75;;
10056;SDS011;5068;51.286;7.518;2022-08-03T02:41:30;1.88;;;1.77;;
10056;SDS011;5068;51.286;7.518;2022-08-03T02:43:11;3.63;;;1.70;;
10056;SDS011;5068;51.286;7.518;2022-08-03T02:44:53;3.33;;;1.63;;
10056;SDS011;5068;51.286;7.518;2022-08-03T02:46:30;2.88;;;1.80;;
10056;SDS011;5068;51.286;7.518;2022-08-03T02:48:08;2.30;;;2.10;;
10056;SDS011;5068;51.286;7.518;2022-08-03T02:49:45;3.80;;;1.88;;
10056;SDS011;5068;51.286;7.518;2022-08-03T02:51:23;2.03;;;1.80;;
10056;SDS011;5068;51.286;7.518;2022-08-03T02:53:04;2.00;;;1.80;;
10056;SDS011;5068;51.286;7.518;2022-08-03T02:54:41;3.30;;;1.80;;
10056;SDS011;5068;51.286;7.518;2022-08-03T02:56:17;3.92;;;1.80;;
10056;SDS011;5068;51.286;7.518;2022-08-03T02:57:51;2.10;;;2.00;;
10056;SDS011;5068;51.286;7.518;2022-08-03T03:02:03;1.73;;;1.60;;
10056;SDS011;5068;51.286;7.518;2022-08-03T03:03:37;5.18;;;1.88;;
10056;SDS011;5068;51.286;7.518;2022-08-03T03:05:17;1.85;;;1.55;;
10056;SDS011;5068;51.286;7.518;2022-08-03T03:07:11;1.98;;;1.88;;
10056;SDS011;5068;51.286;7.518;2022-08-03T03:08:46;1.77;;;1.50;;
10056;SDS011;5068;51.286;7.518;2022-08-03T03:10:20;2.05;;;1.85;;
10056;SDS011;5068;51.286;7.518;2022-08-03T03:11:56;2.00;;;1.90;;
10056;SDS011;5068;51.286;7.518;2022-08-03T03:13:30;3.00;;;1.75;;
10056;SDS011;5068;51.286;7.518;2022-08-03T03:15:05;1.95;;;1.65;;
10056;SDS011;5068;51.286;7.518;2022-08-03T03:16:39;2.38;;;1.70;;
10056;SDS011;5068;51.286;7.518;2022-08-03T03:18:22;2.35;;;1.60;;
10056;SDS011;5068;51.286;7.518;2022-08-03T03:19:57;2.92;;;2.03;;
10056;SDS011;5068;51.286;7.518;2022-08-03T03:21:33;2.38;;;1.95;;
10056;SDS011;5068;51.286;7.518;2022-08-03T03:23:08;2.00;;;1.75;;
10056;SDS011;5068;51.286;7.518;2022-08-03T03:24:43;3.17;;;2.10;;
10056;SDS011;5068;51.286;7.518;2022-08-03T03:26:19;3.45;;;1.70;;
10056;SDS011;5068;51.286;7.518;2022-08-03T03:27:52;1.90;;;1.80;;
10056;SDS011;5068;51.286;7.518;2022-08-03T03:29:28;2.10;;;1.73;;
10056;SDS011;5068;51.286;7.518;2022-08-03T03:31:10;1.95;;;1.80;;
10056;SDS011;5068;51.286;7.518;2022-08-03T03:32:44;2.03;;;1.88;;
10056;SDS011;5068;51.286;7.518;2022-08-03T03:34:17;1.85;;;1.75;;
10056;SDS011;5068;51.286;7.518;2022-08-03T03:35:51;3.67;;;2.25;;
10056;SDS011;5068;51.286;7.518;2022-08-03T03:37:26;4.32;;;1.90;;
10056;SDS011;5068;51.286;7.518;2022-08-03T03:38:59;2.22;;;1.65;;
10056;SDS011;5068;51.286;7.518;2022-08-03T03:40:46;1.95;;;1.73;;
10056;SDS011;5068;51.286;7.518;2022-08-03T03:42:20;2.00;;;1.90;;
10056;SDS011;5068;51.286;7.518;2022-08-03T03:43:54;2.22;;;1.88;;
10056;SDS011;5068;51.286;7.518;2022-08-03T03:45:29;2.30;;;2.00;;
10056;SDS011;5068;51.286;7.518;2022-08-03T03:47:03;4.90;;;2.17;;
10056;SDS011;5068;51.286;7.518;2022-08-03T03:48:37;2.95;;;1.55;;
10056;SDS011;5068;51.286;7.518;2022-08-03T03:50:11;1.98;;;1.80;;
10056;SDS011;5068;51.286;7.518;2022-08-03T03:51:51;3.30;;;1.80;;
10056;SDS011;5068;51.286;7.518;2022-08-03T03:53:27;2.08;;;1.98;;
10056;SDS011;5068;51.286;7.518;2022-08-03T03:55:00;2.25;;;1.58;;
10056;SDS011;5068;51.286;7.518;2022-08-03T03:56:34;2.03;;;1.83;;
10056;SDS011;5068;51.286;7.518;2022-08-03T03:58:07;3.15;;;1.55;;
10056;SDS011;5068;51.286;7.518;2022-08-03T03:59:41;2.03;;;1.70;;
10056;SDS011;5068;51.286;7.518;2022-08-03T04:01:15;3.13;;;1.75;;
10056;SDS011;5068;51.286;7.518;2022-08-03T04:02:49;1.80;;;1.48;;
10056;SDS011;5068;51.286;7.518;2022-08-03T04:04:23;2.05;;;1.95;;
10056;SDS011;5068;51.286;7.518;2022-08-03T04:06:14;2.97;;;1.60;;
10056;SDS011;5068;51.286;7.518;2022-08-03T04:08:06;3.30;;;1.67;;
10056;SDS011;5068;51.286;7.518;2022-08-03T04:10:03;2.25;;;1.80;;
10056;SDS011;5068;51.286;7.518;2022-08-03T04:12:02;7.30;;;2.22;;
10056;SDS011;5068;51.286;7.518;2022-08-03T04:13:38;2.50;;;2.10;;
10056;SDS011;5068;51.286;7.518;2022-08-03T04:15:16;3.75;;;2.10;;
10056;SDS011;5068;51.286;7.518;2022-08-03T04:16:55;1.92;;;1.83;;
10056;SDS011;5068;51.286;7.518;2022-08-03T04:18:33;2.33;;;2.15;;
10056;SDS011;5068;51.286;7.518;2022-08-03T04:20:10;2.67;;;2.20;;
10056;SDS011;5068;51.286;7.518;2022-08-03T04:21:48;3.75;;;1.70;;
10056;SDS011;5068;51.286;7.518;2022-08-03T04:23:28;2.83;;;1.83;;
10056;SDS011;5068;51.286;7.518;2022-08-03T04:25:08;1.70;;;1.60;;
10056;SDS011;5068;51.286;7.518;2022-08-03T04:26:49;2.30;;;1.90;;
10056;SDS011;5068;51.286;7.518;2022-08-03T04:28:24;3.47;;;1.80;;
10056;SDS011;5068;51.286;7.518;2022-08-03T04:30:03;2.08;;;1.55;;
10056;SDS011;5068;51.286;7.518;2022-08-03T04:31:38;1.70;;;1.60;;
10056;SDS011;5068;51.286;7.518;2022-08-03T04:33:15;1.70;;;1.60;;
10056;SDS011;5068;51.286;7.518;2022-08-03T04:34:49;2.08;;;1.88;;
10056;SDS011;5068;51.286;7.518;2022-08-03T04:36:24;2.70;;;2.00;;
10056;SDS011;5068;51.286;7.518;2022-08-03T04:38:05;3.05;;;1.63;;
10056;SDS011;5068;51.286;7.518;2022-08-03T04:39:41;1.75;;;1.65;;
10056;SDS011;5068;51.286;7.518;2022-08-03T04:41:18;2.15;;;1.80;;
10056;SDS011;5068;51.286;7.518;2022-08-03T04:42:56;2.47;;;1.85;;
10056;SDS011;5068;51.286;7.518;2022-08-03T04:44:33;2.63;;;2.15;;
10056;SDS011;5068;51.286;7.518;2022-08-03T04:46:10;2.50;;;2.30;;
10056;SDS011;5068;51.286;7.518;2022-08-03T04:47:45;2.05;;;1.77;;
10056;SDS011;5068;51.286;7.518;2022-08-03T04:49:19;2.88;;;1.80;;
10056;SDS011;5068;51.286;7.518;2022-08-03T04:50:54;3.25;;;2.22;;
10056;SDS011;5068;51.286;7.518;2022-08-03T04:52:28;4.38;;;2.00;;
10056;SDS011;5068;51.286;7.518;2022-08-03T04:54:02;1.88;;;1.77;;
10056;SDS011;5068;51.286;7.518;2022-08-03T04:55:37;2.45;;;1.80;;
10056;SDS011;5068;51.286;7.518;2022-08-03T04:57:12;1.90;;;1.48;;
10056;SDS011;5068;51.286;7.518;2022-08-03T04:58:54;2.92;;;1.92;;
10056;SDS011;5068;51.286;7.518;2022-08-03T05:00:27;5.13;;;2.03;;
10056;SDS011;5068;51.286;7.518;2022-08-03T05:02:01;2.13;;;1.63;;
10056;SDS011;5068;51.286;7.518;2022-08-03T05:03:35;2.00;;;1.80;;
10056;SDS011;5068;51.286;7.518;2022-08-03T05:05:09;3.67;;;1.90;;
10056;SDS011;5068;51.286;7.518;2022-08-03T05:06:43;2.22;;;2.03;;
10056;SDS011;5068;51.286;7.518;2022-08-03T05:08:26;1.92;;;1.83;;
10056;SDS011;5068;51.286;7.518;2022-08-03T05:09:59;2.45;;;1.50;;
10056;SDS011;5068;51.286;7.518;2022-08-03T05:11:34;1.98;;;1.85;;
10056;SDS011;5068;51.286;7.518;2022-08-03T05:13:10;3.17;;;1.70;;
10056;SDS011;5068;51.286;7.518;2022-08-03T05:14:45;1.73;;;1.63;;
10056;SDS011;5068;51.286;7.518;2022-08-03T05:16:18;1.95;;;1.85;;
10056;SDS011;5068;51.286;7.518;2022-08-03T05:17:52;3.08;;;2.10;;
10056;SDS011;5068;51.286;7.518;2022-08-03T05:19:25;3.70;;;1.70;;
10056;SDS011;5068;51.286;7.518;2022-08-03T05:20:59;2.80;;;1.77;;
10056;SDS011;5068;51.286;7.518;2022-08-03T05:22:33;2.17;;;1.98;;
10056;SDS011;5068;51.286;7.518;2022-08-03T05:24:07;4.15;;;1.67;;
10056;SDS011;5068;51.286;7.518;2022-08-03T05:25:40;2.50;;;1.80;;
10056;SDS011;5068;51.286;7.518;2022-08-03T05:27:20;3.53;;;1.65;;
10056;SDS011;5068;51.286;7.518;2022-08-03T05:28:55;2.95;;;1.73;;
10056;SDS011;5068;51.286;7.518;2022-08-03T05:30:29;2.13;;;1.92;;
10056;SDS011;5068;51.286;7.518;2022-08-03T05:32:05;2.08;;;1.95;;
10056;SDS011;5068;51.286;7.518;2022-08-03T05:33:39;3.03;;;2.08;;
10056;SDS011;5068;51.286;7.518;2022-08-03T05:35:13;3.08;;;1.70;;
10056;SDS011;5068;51.286;7.518;2022-08-03T05:37:06;2.28;;;2.08;;
10056;SDS011;5068;51.286;7.518;2022-08-03T05:38:42;2.45;;;1.70;;
10056;SDS011;5068;51.286;7.518;2022-08-03T05:40:15;2.00;;;1.90;;
10056;SDS011;5068;51.286;7.518;2022-08-03T05:41:49;1.98;;;1.88;;
10056;SDS011;5068;51.286;7.518;2022-08-03T05:43:22;2.30;;;1.90;;
10056;SDS011;5068;51.286;7.518;2022-08-03T05:44:58;3.20;;;1.60;;
10056;SDS011;5068;51.286;7.518;2022-08-03T05:46:43;2.20;;;2.00;;
10056;SDS011;5068;51.286;7.518;2022-08-03T05:48:17;2.35;;;2.15;;
10056;SDS011;5068;51.286;7.518;2022-08-03T05:49:50;2.40;;;2.00;;
10056;SDS011;5068;51.286;7.518;2022-08-03T05:51:23;2.53;;;2.05;;
10056;SDS011;5068;51.286;7.518;2022-08-03T05:52:58;3.15;;;2.10;;
10056;SDS011;5068;51.286;7.518;2022-08-03T05:54:31;3.65;;;1.90;;
10056;SDS011;5068;51.286;7.518;2022-08-03T05:56:24;2.40;;;2.10;;
10056;SDS011;5068;51.286;7.518;2022-08-03T05:57:58;2.67;;;2.03;;
10056;SDS011;5068;51.286;7.518;2022-08-03T05:59:33;3.10;;;2.10;;
10056;SDS011;5068;51.286;7.518;2022-08-03T06:01:10;2.58;;;2.10;;
10056;SDS011;5068;51.286;7.518;2022-08-03T06:02:44;4.30;;;1.88;;
10056;SDS011;5068;51.286;7.518;2022-08-03T06:04:18;2.55;;;1.80;;
10056;SDS011;5068;51.286;7.518;2022-08-03T06:05:52;2.22;;;1.95;;
10056;SDS011;5068;51.286;7.518;2022-08-03T06:07:31;3.50;;;2.28;;
10056;SDS011;5068;51.286;7.518;2022-08-03T06:09:05;2.25;;;2.05;;
10056;SDS011;5068;51.286;7.518;2022-08-03T06:10:38;2.55;;;2.00;;
10056;SDS011;5068;51.286;7.518;2022-08-03T06:12:12;3.15;;;2.03;;
10056;SDS011;5068;51.286;7.518;2022-08-03T06:13:46;2.42;;;1.92;;
10056;SDS011;5068;51.286;7.518;2022-08-03T06:15:19;2.35;;;2.15;;
10056;SDS011;5068;51.286;7.518;2022-08-03T06:16:53;2.55;;;2.35;;
10056;SDS011;5068;51.286;7.518;2022-08-03T06:18:27;4.40;;;2.40;;
10056;SDS011;5068;51.286;7.518;2022-08-03T06:20:01;4.07;;;2.42;;
10056;SDS011;5068;51.286;7.518;2022-08-03T06:21:35;2.88;;;2.13;;
10056;SDS011;5068;51.286;7.518;2022-08-03T06:23:10;3.55;;;1.95;;
10056;SDS011;5068;51.286;7.518;2022-08-03T06:24:48;3.05;;;2.20;;
10056;SDS011;5068;51.286;7.518;2022-08-03T06:26:25;3.80;;;2.20;;
10056;SDS011;5068;51.286;7.518;2022-08-03T06:27:59;3.25;;;2.28;;
10056;SDS011;5068;51.286;7.518;2022-08-03T06:29:34;5.20;;;2.15;;
10056;SDS011;5068;51.286;7.518;2022-08-03T06:31:07;3.03;;;2.38;;
10056;SDS011;5068;51.286;7.518;2022-08-03T06:32:42;3.63;;;2.25;;
10056;SDS011;5068;51.286;7.518;2022-08-03T06:34:22;3.05;;;2.40;;
10056;SDS011;5068;51.286;7.518;2022-08-03T06:36:05;2.28;;;2.08;;
10056;SDS011;5068;51.286;7.518;2022-08-03T06:37:42;3.05;;;2.08;;
10056;SDS011;5068;51.286;7.518;2022-08-03T06:39:16;2.45;;;2.03;;
10056;SDS011;5068;51.286;7.518;2022-08-03T06:40:50;3.35;;;2.10;;
10056;SDS011;5068;51.286;7.518;2022-08-03T06:42:23;2.97;;;2.20;;
10056;SDS011;5068;51.286;7.518;2022-08-03T06:43:58;4.05;;;2.47;;
10056;SDS011;5068;51.286;7.518;2022-08-03T06:45:34;2.33;;;1.90;;
10056;SDS011;5068;51.286;7.518;2022-08-03T06:47:08;2.67;;;2.00;;
10056;SDS011;5068;51.286;7.518;2022-08-03T06:48:44;4.15;;;1.95;;
10056;SDS011;5068;51.286;7.518;2022-08-03T06:50:18;3.45;;;2.13;;
10056;SDS011;5068;51.286;7.518;2022-08-03T06:51:56;2.30;;;2.10;;
10056;SDS011;5068;51.286;7.518;2022-08-03T06:53:36;4.20;;;2.55;;
10056;SDS011;5068;51.286;7.518;2022-08-03T06:55:10;3.45;;;2.28;;
10056;SDS011;5068;51.286;7.518;2022-08-03T06:56:43;2.65;;;2.30;;
10056;SDS011;5068;51.286;7.518;2022-08-03T06:58:16;3.83;;;1.95;;
10056;SDS011;5068;51.286;7.518;2022-08-03T06:59:49;2.95;;;2.03;;
10056;SDS011;5068;51.286;7.518;2022-08-03T07:01:42;5.43;;;2.20;;
10056;SDS011;5068;51.286;7.518;2022-08-03T07:03:16;2.40;;;2.20;;
10056;SDS011;5068;51.286;7.518;2022-08-03T07:04:51;4.82;;;2.30;;
10056;SDS011;5068;51.286;7.518;2022-08-03T07:06:25;7.75;;;2.20;;
10056;SDS011;5068;51.286;7.518;2022-08-03T07:07:58;2.88;;;2.47;;
10056;SDS011;5068;51.286;7.518;2022-08-03T07:09:33;2.08;;;1.73;;
10056;SDS011;5068;51.286;7.518;2022-08-03T07:11:07;2.63;;;1.80;;
10056;SDS011;5068;51.286;7.518;2022-08-03T07:12:40;2.55;;;1.90;;
10056;SDS011;5068;51.286;7.518;2022-08-03T07:14:27;3.83;;;1.85;;
10056;SDS011;5068;51.286;7.518;2022-08-03T07:16:01;2.15;;;1.80;;
10056;SDS011;5068;51.286;7.518;2022-08-03T07:17:35;3.53;;;1.95;;
10056;SDS011;5068;51.286;7.518;2022-08-03T07:19:08;2.35;;;1.80;;
10056;SDS011;5068;51.286;7.518;2022-08-03T07:20:44;1.98;;;1.77;;
10056;SDS011;5068;51.286;7.518;2022-08-03T07:22:18;3.22;;;1.88;;
10056;SDS011;5068;51.286;7.518;2022-08-03T07:23:51;4.72;;;1.92;;
10056;SDS011;5068;51.286;7.518;2022-08-03T07:25:25;4.90;;;1.90;;
10056;SDS011;5068;51.286;7.518;2022-08-03T07:26:58;3.42;;;1.52;;
10056;SDS011;5068;51.286;7.518;2022-08-03T07:28:33;2.78;;;1.92;;
10056;SDS011;5068;51.286;7.518;2022-08-03T07:30:07;2.97;;;1.73;;
10056;SDS011;5068;51.286;7.518;2022-08-03T07:31:41;2.75;;;1.90;;
10056;SDS011;5068;51.286;7.518;2022-08-03T07:33:15;5.55;;;1.70;;
10056;SDS011;5068;51.286;7.518;2022-08-03T07:34:48;2.30;;;1.52;;
10056;SDS011;5068;51.286;7.518;2022-08-03T07:36:30;3.33;;;1.80;;
10056;SDS011;5068;51.286;7.518;2022-08-03T07:38:05;3.38;;;1.45;;
10056;SDS011;5068;51.286;7.518;2022-08-03T07:39:38;2.28;;;1.40;;
10056;SDS011;5068;51.286;7.518;2022-08-03T07:41:12;2.25;;;1.73;;
10056;SDS011;5068;51.286;7.518;2022-08-03T07:42:45;1.67;;;1.52;;
10056;SDS011;5068;51.286;7.518;2022-08-03T07:44:24;2.10;;;1.73;;
10056;SDS011;5068;51.286;7.518;2022-08-03T07:45:57;3.28;;;1.60;;
10056;SDS011;5068;51.286;7.518;2022-08-03T07:47:31;1.38;;;1.27;;
10056;SDS011;5068;51.286;7.518;2022-08-03T07:49:06;2.85;;;1.40;;
10056;SDS011;5068;51.286;7.518;2022-08-03T07:50:40;2.83;;;1.48;;
10056;SDS011;5068;51.286;7.518;2022-08-03T07:52:14;3.80;;;1.30;;
10056;SDS011;5068;51.286;7.518;2022-08-03T07:54:05;1.33;;;1.25;;
10056;SDS011;5068;51.286;7.518;2022-08-03T07:55:40;3.47;;;1.35;;
10056;SDS011;5068;51.286;7.518;2022-08-03T07:57:14;2.80;;;1.20;;
10056;SDS011;5068;51.286;7.518;2022-08-03T07:58:48;2.05;;;1.73;;
10056;SDS011;5068;51.286;7.518;2022-08-03T08:00:21;2.53;;;1.20;;
10056;SDS011;5068;51.286;7.518;2022-08-03T08:01:55;1.40;;;1.23;;
10056;SDS011;5068;51.286;7.518;2022-08-03T08:03:29;2.30;;;1.40;;
10056;SDS011;5068;51.286;7.518;2022-08-03T08:05:23;1.40;;;1.20;;
10056;SDS011;5068;51.286;7.518;2022-08-03T08:06:56;1.08;;;1.08;;
10056;SDS011;5068;51.286;7.518;2022-08-03T08:08:31;2.20;;;0.98;;
10056;SDS011;5068;51.286;7.518;2022-08-03T08:10:05;1.30;;;1.17;;
10056;SDS011;5068;51.286;7.518;2022-08-03T08:11:41;2.10;;;0.90;;
10056;SDS011;5068;51.286;7.518;2022-08-03T08:13:14;1.70;;;0.90;;
10056;SDS011;5068;51.286;7.518;2022-08-03T08:14:48;1.10;;;1.00;;
10056;SDS011;5068;51.286;7.518;2022-08-03T08:16:21;1.17;;;0.93;;
10056;SDS011;5068;51.286;7.518;2022-08-03T08:17:56;2.55;;;0.88;;
10056;SDS011;5068;51.286;7.518;2022-08-03T08:19:34;2.25;;;0.90;;
10056;SDS011;5068;51.286;7.518;2022-08-03T08:21:14;0.90;;;0.90;;
10056;SDS011;5068;51.286;7.518;2022-08-03T08:22:47;2.00;;;1.00;;
10056;SDS011;5068;51.286;7.518;2022-08-03T08:24:23;0.80;;;0.80;;
10056;SDS011;5068;51.286;7.518;2022-08-03T08:25:58;1.17;;;1.02;;
10056;SDS011;5068;51.286;7.518;2022-08-03T08:27:32;0.90;;;0.90;;
10056;SDS011;5068;51.286;7.518;2022-08-03T08:29:32;1.08;;;0.98;;
10056;SDS011;5068;51.286;7.518;2022-08-03T08:31:18;1.75;;;1.10;;
10056;SDS011;5068;51.286;7.518;2022-08-03T08:32:51;0.90;;;0.90;;
10056;SDS011;5068;51.286;7.518;2022-08-03T08:34:25;1.33;;;0.95;;
10056;SDS011;5068;51.286;7.518;2022-08-03T08:35:58;2.55;;;1.17;;
10056;SDS011;5068;51.286;7.518;2022-08-03T08:37:32;1.23;;;0.93;;
10056;SDS011;5068;51.286;7.518;2022-08-03T08:39:06;2.17;;;1.00;;
10056;SDS011;5068;51.286;7.518;2022-08-03T08:40:41;1.10;;;0.90;;
10056;SDS011;5068;51.286;7.518;2022-08-03T08:42:15;1.83;;;0.63;;
10056;SDS011;5068;51.286;7.518;2022-08-03T08:43:48;1.23;;;0.90;;
10056;SDS011;5068;51.286;7.518;2022-08-03T08:45:22;1.13;;;0.90;;
10056;SDS011;5068;51.286;7.518;2022-08-03T08:46:57;0.90;;;0.90;;
10056;SDS011;5068;51.286;7.518;2022-08-03T08:48:35;2.38;;;1.13;;
10056;SDS011;5068;51.286;7.518;2022-08-03T08:50:14;1.05;;;0.95;;
10056;SDS011;5068;51.286;7.518;2022-08-03T08:51:59;2.38;;;1.10;;
10056;SDS011;5068;51.286;7.518;2022-08-03T08:53:56;1.63;;;1.08;;
10056;SDS011;5068;51.286;7.518;2022-08-03T08:55:34;0.82;;;0.70;;
10056;SDS011;5068;51.286;7.518;2022-08-03T08:57:30;1.10;;;1.00;;
10056;SDS011;5068;51.286;7.518;2022-08-03T08:59:15;1.45;;;0.80;;
10056;SDS011;5068;51.286;7.518;2022-08-03T09:00:51;2.60;;;1.30;;
10056;SDS011;5068;51.286;7.518;2022-08-03T09:02:27;1.30;;;1.10;;
10056;SDS011;5068;51.286;7.518;2022-08-03T09:04:04;1.25;;;1.10;;
10056;SDS011;5068;51.286;7.518;2022-08-03T09:05:40;1.77;;;1.00;;
10056;SDS011;5068;51.286;7.518;2022-08-03T09:07:28;2.92;;;1.08;;
10056;SDS011;5068;51.286;7.518;2022-08-03T09:09:02;1.33;;;1.02;;
10056;SDS011;5068;51.286;7.518;2022-08-03T09:10:37;1.35;;;1.05;;
10056;SDS011;5068;51.286;7.518;2022-08-03T09:12:11;2.42;;;1.02;;
10056;SDS011;5068;51.286;7.518;2022-08-03T09:14:06;2.55;;;1.20;;
10056;SDS011;5068;51.286;7.518;2022-08-03T09:16:10;3.83;;;1.10;;
10056;SDS011;5068;51.286;7.518;2022-08-03T09:17:45;1.83;;;1.17;;
10056;SDS011;5068;51.286;7.518;2022-08-03T09:19:21;2.03;;;1.33;;
10056;SDS011;5068;51.286;7.518;2022-08-03T09:20:55;1.33;;;1.02;;
10056;SDS011;5068;51.286;7.518;2022-08-03T09:23:03;1.95;;;1.40;;
10056;SDS011;5068;51.286;7.518;2022-08-03T09:25:02;1.40;;;1.10;;
10056;SDS011;5068;51.286;7.518;2022-08-03T09:26:55;2.35;;;1.08;;
10056;SDS011;5068;51.286;7.518;2022-08-03T09:28:32;3.33;;;1.20;;
10056;SDS011;5068;51.286;7.518;2022-08-03T09:30:28;3.80;;;1.15;;
10056;SDS011;5068;51.286;7.518;2022-08-03T09:32:05;1.42;;;1.15;;
10056;SDS011;5068;51.286;7.518;2022-08-03T09:33:45;3.03;;;1.20;;
10056;SDS011;5068;51.286;7.518;2022-08-03T09:35:24;1.77;;;1.27;;
10056;SDS011;5068;51.286;7.518;2022-08-03T09:37:19;0.90;;;0.88;;
10056;SDS011;5068;51.286;7.518;2022-08-03T09:39:17;2.58;;;1.20;;
10056;SDS011;5068;51.286;7.518;2022-08-03T09:41:16;4.97;;;1.30;;
10056;SDS011;5068;51.286;7.518;2022-08-03T09:42:54;1.15;;;1.05;;
10056;SDS011;5068;51.286;7.518;2022-08-03T09:44:32;2.03;;;0.93;;
10056;SDS011;5068;51.286;7.518;2022-08-03T09:46:08;1.83;;;1.15;;
10056;SDS011;5068;51.286;7.518;2022-08-03T09:47:42;1.58;;;1.10;;
10056;SDS011;5068;51.286;7.518;2022-08-03T09:49:17;2.88;;;1.33;;
10056;SDS011;5068;51.286;7.518;2022-08-03T09:50:51;1.88;;;1.10;;
10056;SDS011;5068;51.286;7.518;2022-08-03T09:52:44;2.70;;;0.95;;
10056;SDS011;5068;51.286;7.518;2022-08-03T09:54:26;1.10;;;1.00;;
10056;SDS011;5068;51.286;7.518;2022-08-03T09:56:02;1.02;;;1.02;;
10056;SDS011;5068;51.286;7.518;2022-08-03T09:58:02;5.43;;;1.33;;
10056;SDS011;5068;51.286;7.518;2022-08-03T09:59:39;1.02;;;0.93;;
10056;SDS011;5068;51.286;7.518;2022-08-03T10:01:17;1.90;;;1.10;;
10056;SDS011;5068;51.286;7.518;2022-08-03T10:03:02;1.35;;;1.20;;
10056;SDS011;5068;51.286;7.518;2022-08-03T10:04:45;1.30;;;1.00;;
10056;SDS011;5068;51.286;7.518;2022-08-03T10:06:21;1.25;;;1.02;;